createdAt,value
2023-04-15T00:00:42.260Z,99266.00
2023-04-15T00:03:55.010Z,99267.63
2023-04-15T00:06:57.594Z,99265.97
2023-04-15T00:10:00.270Z,99268.06
2023-04-15T00:13:04.398Z,99268.97
2023-04-15T00:16:08.464Z,99268.97
2023-04-15T00:19:11.314Z,99264.59
2023-04-15T00:22:13.954Z,99265.62
2023-04-15T00:25:16.781Z,99263.19
2023-04-15T00:28:19.384Z,99268.31
2023-04-15T00:31:22.093Z,99269.87
2023-04-15T00:34:24.793Z,99263.78
2023-04-15T00:37:27.425Z,99265.62
2023-04-15T00:40:30.589Z,99265.56
2023-04-15T00:43:33.200Z,99259.78
2023-04-15T00:46:36.088Z,99260.13
2023-04-15T00:49:38.670Z,99257.22
2023-04-15T00:52:41.597Z,99259.97
2023-04-15T00:55:44.256Z,99264.16
2023-04-15T00:58:47.255Z,99259.84
2023-04-15T01:01:50.316Z,99256.41
2023-04-15T01:04:53.132Z,99258.31
2023-04-15T01:07:56.307Z,99258.25
2023-04-15T01:11:01.511Z,99254.97
2023-04-15T01:14:06.073Z,99242.88
2023-04-15T01:17:08.808Z,99241.06
2023-04-15T01:20:12.295Z,99245.13
2023-04-15T01:23:15.464Z,99246.03
2023-04-15T01:26:18.108Z,99244.47
2023-04-15T01:29:22.446Z,99243.69
2023-04-15T01:32:26.400Z,99250.72
2023-04-15T01:35:29.049Z,99248.38
2023-04-15T01:38:32.234Z,99256.88
2023-04-15T01:41:35.081Z,99250.78
2023-04-15T01:44:37.724Z,99255.91
2023-04-15T01:47:40.461Z,99263.13
2023-04-15T01:50:45.892Z,99255.31
2023-04-15T01:53:50.290Z,99258.16
2023-04-15T01:56:53.247Z,99259.88
2023-04-15T01:59:56.172Z,99263.34
2023-04-15T02:02:59.463Z,99265.94
2023-04-15T02:06:02.564Z,99258.88
2023-04-15T02:09:05.234Z,99262.22
2023-04-15T02:12:07.863Z,99265.53
2023-04-15T02:15:10.810Z,99264.88
2023-04-15T02:18:13.359Z,99264.88
2023-04-15T02:21:15.992Z,99265.69
2023-04-15T02:24:19.068Z,99262.16
2023-04-15T02:27:22.617Z,99263.84
2023-04-15T02:30:26.016Z,99271.03
2023-04-15T02:33:28.829Z,99272.28
2023-04-15T02:36:32.060Z,99269.81
2023-04-15T02:39:34.649Z,99270.69
2023-04-15T02:42:37.751Z,99269.81
2023-04-15T02:45:43.383Z,99269.75
2023-04-15T02:48:46.566Z,99275.00
2023-04-15T02:51:49.830Z,99272.50
2023-04-15T02:55:00.522Z,99276.84
2023-04-15T02:58:05.404Z,99275.09
2023-04-15T03:01:09.017Z,99275.19
2023-04-15T03:04:12.357Z,99262.28
2023-04-15T03:07:15.395Z,99265.06
2023-04-15T03:10:18.019Z,99264.25
2023-04-15T03:13:21.891Z,99257.28
2023-04-15T03:16:25.269Z,99260.75
2023-04-15T03:19:27.925Z,99262.63
2023-04-15T03:22:31.151Z,99253.16
2023-04-15T03:25:33.945Z,99256.81
2023-04-15T03:28:36.582Z,99262.72
2023-04-15T03:31:39.231Z,99255.94
2023-04-15T03:34:42.362Z,99256.72
2023-04-15T03:37:45.090Z,99258.69
2023-04-15T03:40:47.753Z,99261.13
2023-04-15T03:43:52.129Z,99262.06
2023-04-15T03:46:54.964Z,99265.25
2023-04-15T03:49:57.573Z,99267.00
2023-04-15T03:53:00.793Z,99267.00
2023-04-15T03:56:03.388Z,99272.25
2023-04-15T03:59:06.149Z,99277.69
2023-04-15T04:02:08.765Z,99270.19
2023-04-15T04:05:11.800Z,99258.75
2023-04-15T04:08:14.311Z,99258.75
2023-04-15T04:11:17.262Z,99259.56
2023-04-15T04:14:19.556Z,99256.16
2023-04-15T04:17:22.544Z,99259.66
2023-04-15T04:20:25.056Z,99258.84
2023-04-15T04:23:27.932Z,99257.97
2023-04-15T04:26:30.499Z,99264.97
2023-04-15T04:29:33.416Z,99264.97
2023-04-15T04:32:35.757Z,99260.72
2023-04-15T04:35:38.797Z,99253.78
2023-04-15T04:38:41.495Z,99262.50
2023-04-15T04:41:45.171Z,99257.34
2023-04-15T04:44:47.490Z,99261.75
2023-04-15T04:47:50.757Z,99255.84
2023-04-15T04:50:53.156Z,99250.97
2023-04-15T04:53:56.714Z,99259.75
2023-04-15T04:56:59.091Z,99254.72
2023-04-15T05:00:04.582Z,99255.84
2023-04-15T05:03:07.337Z,99259.56
2023-04-15T05:06:10.725Z,99250.34
2023-04-15T05:09:12.971Z,99254.94
2023-04-15T05:12:15.971Z,99260.44
2023-04-15T05:15:18.239Z,99259.53
2023-04-15T05:18:21.345Z,99257.06
2023-04-15T05:21:23.740Z,99262.50
2023-04-15T05:24:26.619Z,99267.13
2023-04-15T05:27:28.914Z,99262.22
2023-04-15T05:30:32.036Z,99269.06
2023-04-15T05:33:34.603Z,99269.06
2023-04-15T05:36:37.436Z,99262.28
2023-04-15T05:39:39.800Z,99261.47
2023-04-15T05:42:42.834Z,99267.34
2023-04-15T05:45:45.157Z,99271.63
2023-04-15T05:48:48.013Z,99273.69
2023-04-15T05:51:50.673Z,99275.97
2023-04-15T05:54:53.527Z,99279.16
2023-04-15T05:57:55.767Z,99274.78
2023-04-15T06:00:58.947Z,99266.09
2023-04-15T06:04:02.017Z,99284.41
2023-04-15T06:07:04.749Z,99286.09
2023-04-15T06:10:07.914Z,99286.97
2023-04-15T06:13:10.468Z,99286.22
2023-04-15T06:16:13.566Z,99296.97
2023-04-15T06:19:16.242Z,99298.44
2023-04-15T06:22:20.264Z,99294.06
2023-04-15T06:25:23.116Z,99297.66
2023-04-15T06:28:25.691Z,99304.34
2023-04-15T06:31:28.947Z,99307.00
2023-04-15T06:34:31.870Z,99305.75
2023-04-15T06:37:34.507Z,99308.25
2023-04-15T06:40:37.184Z,99308.81
2023-04-15T06:43:40.177Z,99309.84
2023-04-15T06:46:42.977Z,99318.03
2023-04-15T06:49:45.609Z,99311.16
2023-04-15T06:52:48.242Z,99320.34
2023-04-15T06:55:50.929Z,99324.06
2023-04-15T06:58:53.617Z,99324.88
2023-04-15T07:01:56.304Z,99316.03
2023-04-15T07:04:58.956Z,99320.75
2023-04-15T07:08:02.012Z,99321.50
2023-04-15T07:11:04.852Z,99321.84
2023-04-15T07:14:07.484Z,99327.41
2023-04-15T07:17:10.164Z,99326.00
2023-04-15T07:20:13.010Z,99327.31
2023-04-15T07:23:16.372Z,99330.44
2023-04-15T07:26:19.065Z,99311.75
2023-04-15T07:29:21.696Z,99317.28
2023-04-15T07:32:24.323Z,99327.28
2023-04-15T07:35:27.625Z,99331.41
2023-04-15T07:38:30.310Z,99328.47
2023-04-15T07:41:33.150Z,99330.53
2023-04-15T07:44:35.740Z,99328.16
2023-04-15T07:47:38.505Z,99326.66
2023-04-15T07:50:41.126Z,99321.31
2023-04-15T07:53:44.599Z,99325.75
2023-04-15T07:56:47.200Z,99319.19
2023-04-15T07:59:49.807Z,99322.47
2023-04-15T08:02:54.117Z,99320.03
2023-04-15T08:05:57.512Z,99318.75
2023-04-15T08:09:00.544Z,99321.50
2023-04-15T08:12:03.720Z,99315.31
2023-04-15T08:15:08.245Z,99316.09
2023-04-15T08:18:11.316Z,99329.94
2023-04-15T08:21:15.005Z,99318.72
2023-04-15T08:24:17.581Z,99326.38
2023-04-15T08:27:20.151Z,99336.63
2023-04-15T08:30:23.906Z,99328.78
2023-04-15T08:33:26.461Z,99335.97
2023-04-15T08:36:29.339Z,99332.44
2023-04-15T08:39:31.902Z,99334.28
2023-04-15T08:42:37.746Z,99336.09
2023-04-15T08:45:40.549Z,99340.16
2023-04-15T08:48:44.274Z,99353.16
2023-04-15T08:51:47.189Z,99349.50
2023-04-15T08:54:49.851Z,99343.88
2023-04-15T08:57:52.757Z,99340.75
2023-04-15T09:00:56.701Z,99349.91
2023-04-15T09:03:59.852Z,99352.72
2023-04-15T09:07:02.916Z,99339.63
2023-04-15T09:10:06.588Z,99342.19
2023-04-15T09:13:09.673Z,99340.28
2023-04-15T09:16:12.382Z,99348.91
2023-04-15T09:19:22.712Z,99348.22
2023-04-15T09:22:32.321Z,99357.16
2023-04-15T09:25:35.255Z,99355.38
2023-04-15T09:28:43.988Z,99342.22
2023-04-15T09:31:47.224Z,99350.94
2023-04-15T09:34:49.798Z,99347.41
2023-04-15T09:37:52.750Z,99352.53
2023-04-15T09:40:56.054Z,99349.53
2023-04-15T09:43:58.721Z,99349.28
2023-04-15T09:47:01.894Z,99347.53
2023-04-15T09:50:04.641Z,99341.53
2023-04-15T09:53:09.350Z,99348.28
2023-04-15T09:56:11.984Z,99349.22
2023-04-15T09:59:14.584Z,99350.06
2023-04-15T10:02:18.563Z,99364.84
2023-04-15T10:05:21.993Z,99351.47
2023-04-15T10:08:25.290Z,99357.31
2023-04-15T10:11:30.329Z,99364.09
2023-04-15T10:14:34.755Z,99363.81
2023-04-15T10:17:38.318Z,99363.63
2023-04-15T10:20:41.401Z,99379.88
2023-04-15T10:23:47.391Z,99371.44
2023-04-15T10:26:50.642Z,99367.72
2023-04-15T10:29:54.332Z,99385.03
2023-04-15T10:32:57.181Z,99377.38
2023-04-15T10:36:00.680Z,99378.84
2023-04-15T10:39:10.028Z,99378.56
2023-04-15T10:42:16.825Z,99373.78
2023-04-15T10:45:19.458Z,99385.22
2023-04-15T10:48:22.382Z,99377.00
2023-04-15T10:51:31.636Z,99378.19
2023-04-15T10:54:36.304Z,99382.78
2023-04-15T10:57:39.588Z,99386.22
2023-04-15T11:00:50.049Z,99394.44
2023-04-15T11:03:52.510Z,99391.09
2023-04-15T11:07:05.726Z,99401.44
2023-04-15T11:10:14.357Z,99394.59
2023-04-15T11:13:18.113Z,99400.47
2023-04-15T11:16:20.609Z,99410.72
2023-04-15T11:19:23.443Z,99402.72
2023-04-15T11:22:25.958Z,99412.34
2023-04-15T11:25:35.773Z,99409.19
2023-04-15T11:28:42.500Z,99402.84
2023-04-15T11:31:50.415Z,99406.37
2023-04-15T11:34:52.690Z,99403.16
2023-04-15T11:37:55.819Z,99395.78
2023-04-15T11:40:58.317Z,99400.56
2023-04-15T11:44:01.476Z,99399.75
2023-04-15T11:47:21.949Z,99407.00
2023-04-15T11:50:24.898Z,99410.97
2023-04-15T11:53:43.497Z,99403.34
2023-04-15T11:56:50.628Z,99413.09
2023-04-15T11:59:55.006Z,99420.28
2023-04-15T12:03:14.294Z,99419.50
2023-04-15T12:06:18.082Z,99425.56
2023-04-15T12:09:21.221Z,99415.97
2023-04-15T12:12:27.732Z,99423.81
2023-04-15T12:15:30.353Z,99415.25
2023-04-15T12:18:33.116Z,99415.69
2023-04-15T12:21:36.949Z,99413.16
2023-04-15T12:24:39.780Z,99409.44
2023-04-15T12:27:42.569Z,99412.88
2023-04-15T12:30:55.358Z,99412.81
2023-04-15T12:33:58.628Z,99413.59
2023-04-15T12:37:03.233Z,99428.59
2023-04-15T12:40:08.493Z,99426.59
2023-04-15T12:43:11.157Z,99419.44
2023-04-15T12:46:13.943Z,99414.25
2023-04-15T12:49:19.815Z,99418.62
2023-04-15T12:52:23.111Z,99431.63
2023-04-15T12:55:25.675Z,99420.03
2023-04-15T12:58:28.510Z,99426.91
2023-04-15T13:01:31.670Z,99440.62
2023-04-15T13:04:34.320Z,99456.72
2023-04-15T13:07:37.405Z,99440.62
2023-04-15T13:10:40.114Z,99433.75
2023-04-15T13:13:42.817Z,99439.88
2023-04-15T13:16:45.732Z,99448.62
2023-04-15T13:19:48.304Z,99446.22
2023-04-15T13:22:52.250Z,99433.91
2023-04-15T13:25:54.931Z,99442.66
2023-04-15T13:28:57.471Z,99439.13
2023-04-15T13:32:01.577Z,99443.53
2023-04-15T13:35:05.244Z,99440.56
2023-04-15T13:38:07.813Z,99448.50
2023-04-15T13:41:10.571Z,99443.28
2023-04-15T13:44:13.607Z,99442.50
2023-04-15T13:47:16.351Z,99444.50
2023-04-15T13:50:19.004Z,99456.56
2023-04-15T13:53:21.789Z,99452.78
2023-04-15T13:56:38.709Z,99472.75
2023-04-15T13:59:41.343Z,99449.00
2023-04-15T14:02:44.130Z,99454.09
2023-04-15T14:05:47.184Z,99456.59
2023-04-15T14:11:52.391Z,99459.47
2023-04-15T14:14:54.766Z,99466.00
2023-04-15T14:17:57.867Z,99463.81
2023-04-15T14:21:00.409Z,99468.25
2023-04-15T14:24:03.501Z,99469.31
2023-04-15T14:27:12.346Z,99479.72
2023-04-15T14:30:15.286Z,99469.78
2023-04-15T14:33:17.857Z,99473.91
2023-04-15T14:36:21.180Z,99476.41
2023-04-15T14:39:23.617Z,99482.28
2023-04-15T14:42:29.457Z,99486.00
2023-04-15T14:45:31.809Z,99489.25
2023-04-15T14:48:34.761Z,99483.94
2023-04-15T14:51:37.061Z,99492.75
2023-04-15T14:54:39.928Z,99494.53
2023-04-15T14:57:42.743Z,99493.00
2023-04-15T15:00:50.224Z,99493.81
2023-04-15T15:03:53.635Z,99487.88
2023-04-15T15:06:56.576Z,99490.31
2023-04-15T15:09:58.854Z,99485.94
2023-04-15T15:13:05.807Z,99491.16
2023-04-15T15:16:08.162Z,99495.53
2023-04-15T15:19:11.079Z,99498.28
2023-04-15T15:22:13.376Z,99503.47
2023-04-15T15:25:16.445Z,99511.94
2023-04-15T15:28:18.780Z,99506.56
2023-04-15T15:31:21.773Z,99513.53
2023-04-15T15:34:24.349Z,99516.22
2023-04-15T15:37:27.645Z,99515.22
2023-04-15T15:40:29.983Z,99522.00
2023-04-15T15:43:32.964Z,99528.97
2023-04-15T15:46:35.541Z,99536.84
2023-04-15T15:49:38.487Z,99543.78
2023-04-15T15:52:40.867Z,99548.22
2023-04-15T15:55:44.032Z,99557.44
2023-04-15T15:58:46.351Z,99559.41
2023-04-15T16:01:50.455Z,99559.06
2023-04-15T16:04:53.363Z,99569.31
2023-04-15T16:07:56.014Z,99570.03
2023-04-15T16:10:58.644Z,99573.34
2023-04-15T16:14:01.515Z,99573.63
2023-04-15T16:17:04.170Z,99581.13
2023-04-15T16:20:07.118Z,99573.03
2023-04-15T16:23:13.759Z,99572.44
2023-04-15T16:26:16.578Z,99577.38
2023-04-15T16:29:19.205Z,99575.41
2023-04-15T16:32:22.187Z,99572.91
2023-04-15T16:35:24.973Z,99574.72
2023-04-15T16:38:27.725Z,99580.91
2023-04-15T16:41:31.667Z,99567.91
2023-04-15T16:44:35.277Z,99569.91
2023-04-15T16:47:37.964Z,99584.59
2023-04-15T16:50:40.684Z,99588.38
2023-04-15T16:53:43.272Z,99590.03
2023-04-15T16:56:45.933Z,99601.38
2023-04-15T16:59:48.523Z,99599.44
2023-04-15T17:02:51.279Z,99616.06
2023-04-15T17:05:53.892Z,99619.31
2023-04-15T17:08:56.661Z,99624.28
2023-04-15T17:11:59.318Z,99625.31
2023-04-15T17:15:01.936Z,99630.47
2023-04-15T17:18:04.864Z,99629.41
2023-04-15T17:21:07.637Z,99635.19
2023-04-15T17:24:10.263Z,99644.50
2023-04-15T17:27:13.210Z,99647.56
2023-04-15T17:30:16.275Z,99656.59
2023-04-15T17:33:57.482Z,99659.16
2023-04-15T17:36:41.619Z,99657.25
2023-04-15T17:39:44.323Z,99658.16
2023-04-15T17:42:47.003Z,99661.75
2023-04-15T17:45:50.225Z,99671.25
2023-04-15T17:48:52.904Z,99678.06
2023-04-15T17:51:55.668Z,99680.16
2023-04-15T17:54:58.365Z,99679.78
2023-04-15T17:58:01.022Z,99685.00
2023-04-15T18:01:03.616Z,99688.50
2023-04-15T18:04:06.965Z,99695.50
2023-04-15T18:07:09.754Z,99698.06
2023-04-15T18:10:12.617Z,99701.38
2023-04-15T18:13:15.038Z,99698.78
2023-04-15T18:16:18.024Z,99707.34
2023-04-15T18:19:23.195Z,99704.72
2023-04-15T18:22:26.121Z,99703.84
2023-04-15T18:25:30.078Z,99713.38
2023-04-15T18:28:33.142Z,99721.16
2023-04-15T18:31:35.906Z,99720.25
2023-04-15T18:34:38.889Z,99726.84
2023-04-15T18:37:41.360Z,99732.00
2023-04-15T18:40:44.272Z,99735.94
2023-04-15T18:43:46.571Z,99742.72
2023-04-15T18:46:49.931Z,99749.72
2023-04-15T18:49:52.280Z,99753.91
2023-04-15T18:52:55.478Z,99759.59
2023-04-15T18:55:58.120Z,99764.91
2023-04-15T18:59:08.313Z,99766.28
2023-04-15T19:02:23.505Z,99774.50
2023-04-15T19:05:27.115Z,99777.09
2023-04-15T19:08:29.720Z,99773.00
2023-04-15T19:11:32.569Z,99785.75
2023-04-15T19:14:35.115Z,99782.94
2023-04-15T19:17:38.110Z,99791.28
2023-04-15T19:20:40.531Z,99801.63
2023-04-15T19:23:43.559Z,99805.22
2023-04-15T19:26:48.112Z,99812.28
2023-04-15T19:29:51.007Z,99815.78
2023-04-15T19:32:53.277Z,99807.09
2023-04-15T19:35:56.304Z,99814.72
2023-04-15T19:39:01.613Z,99824.06
2023-04-15T19:42:04.643Z,99815.41
2023-04-15T19:45:07.254Z,99827.22
2023-04-15T19:48:10.185Z,99833.63
2023-04-15T19:51:12.488Z,99834.44
2023-04-15T19:54:15.685Z,99828.19
2023-04-15T19:57:18.036Z,99834.25
2023-04-15T20:00:21.013Z,99832.28
2023-04-15T20:03:23.953Z,99837.31
2023-04-15T20:06:27.593Z,99842.44
2023-04-15T20:09:30.415Z,99845.53
2023-04-15T20:12:50.349Z,99849.13
2023-04-15T20:15:55.207Z,99845.84
2023-04-15T20:19:02.005Z,99851.22
2023-04-15T20:22:05.041Z,99852.34
2023-04-15T20:25:07.749Z,99852.53
2023-04-15T20:28:10.481Z,99852.00
2023-04-15T20:31:13.130Z,99856.56
2023-04-15T20:34:15.743Z,99854.94
2023-04-15T20:37:18.359Z,99858.25
2023-04-15T20:40:21.604Z,99847.78
2023-04-15T20:43:25.662Z,99857.66
2023-04-15T20:46:28.341Z,99859.94
2023-04-15T20:49:33.217Z,99863.78
2023-04-15T20:52:36.051Z,99866.19
2023-04-15T20:55:38.699Z,99868.78
2023-04-15T20:58:41.516Z,99864.22
2023-04-15T21:01:45.814Z,99873.88
2023-04-15T21:04:48.424Z,99873.94
2023-04-15T21:07:51.050Z,99876.59
2023-04-15T21:10:53.673Z,99881.81
2023-04-15T21:13:56.291Z,99891.41
2023-04-15T21:16:59.263Z,99893.97
2023-04-15T21:20:02.233Z,99889.78
2023-04-15T21:23:05.021Z,99897.50
2023-04-15T21:26:07.653Z,99902.63
2023-04-15T21:29:11.621Z,99906.94
2023-04-15T21:32:14.724Z,99908.63
2023-04-15T21:35:17.433Z,99919.91
2023-04-15T21:38:23.157Z,99913.84
2023-04-15T21:41:26.306Z,99921.66
2023-04-15T21:44:29.035Z,99918.13
2023-04-15T21:47:31.752Z,99922.53
2023-04-15T21:51:01.645Z,99926.75
2023-04-15T21:54:04.285Z,99921.66
2023-04-15T21:57:06.905Z,99924.25
2023-04-15T22:00:10.864Z,99926.22
2023-04-15T22:03:13.408Z,99926.09
2023-04-15T22:06:16.380Z,99937.38
2023-04-15T22:09:19.174Z,99931.31
2023-04-15T22:12:22.036Z,99937.22
2023-04-15T22:15:24.586Z,99939.84
2023-04-15T22:18:27.197Z,99936.59
2023-04-15T22:21:29.779Z,99942.59
2023-04-15T22:24:39.981Z,99946.94
2023-04-15T22:27:43.251Z,99948.63
2023-04-15T22:30:46.099Z,99945.97
2023-04-15T22:33:48.824Z,99950.41
2023-04-15T22:36:52.351Z,99947.87
2023-04-15T22:39:54.982Z,99946.66
2023-04-15T22:42:57.554Z,99949.28
2023-04-15T22:46:00.737Z,99957.72
2023-04-15T22:49:03.484Z,99957.72
2023-04-15T22:52:07.911Z,99957.56
2023-04-15T22:55:10.595Z,99955.94
2023-04-15T22:58:13.277Z,99959.59
2023-04-15T23:01:18.810Z,99957.50
2023-04-15T23:04:23.213Z,99957.28
2023-04-15T23:07:30.713Z,99961.63
2023-04-15T23:10:33.463Z,99958.09
2023-04-15T23:13:36.136Z,99957.28
2023-04-15T23:16:38.963Z,99955.59
2023-04-15T23:19:41.606Z,99957.97
2023-04-15T23:22:44.262Z,99956.19
2023-04-15T23:25:46.926Z,99950.88
2023-04-15T23:28:49.574Z,99954.38
2023-04-15T23:31:52.307Z,99957.69
2023-04-15T23:34:54.912Z,99960.25
2023-04-15T23:37:57.441Z,99970.72
2023-04-15T23:40:59.940Z,99973.16
2023-04-15T23:44:02.558Z,99975.75
2023-04-15T23:47:05.262Z,99975.69
2023-04-15T23:50:08.242Z,99973.91
2023-04-15T23:53:10.847Z,99978.06
2023-04-15T23:56:13.434Z,99973.62
2023-04-15T23:59:16.269Z,99968.31
